Aviation Digital Data Service (ADDS)

Output produced by TAFs form (0824 UTC 28 November 2014)
found at http://aviationweather.gov/adds/tafs/
 
KTUS 280532Z 2806/2906 11008KT P6SM SKC 
     FM281400 13013G23KT P6SM FEW250 
     FM281900 12007KT P6SM FEW250 
     FM282200 36006KT P6SM FEW250 
     FM290300 22004KT P6SM SKC